createdAt,value
2019-02-19T00:00:47.501Z,41.81
2019-02-19T00:03:17.056Z,42.24
2019-02-19T00:05:46.679Z,42.43
2019-02-19T00:08:16.193Z,42.30
2019-02-19T00:10:45.687Z,46.15
2019-02-19T00:13:15.252Z,42.13
2019-02-19T00:15:44.758Z,41.86
2019-02-19T00:18:14.273Z,41.99
2019-02-19T00:20:43.804Z,42.15
2019-02-19T00:23:13.411Z,42.18
2019-02-19T00:25:42.978Z,41.90
2019-02-19T00:28:12.615Z,42.32
2019-02-19T00:30:42.089Z,42.87
2019-02-19T00:33:11.673Z,43.47
2019-02-19T00:35:41.244Z,42.99
2019-02-19T00:38:10.748Z,43.70
2019-02-19T00:40:40.268Z,44.18
2019-02-19T00:43:09.790Z,43.18
2019-02-19T00:45:39.362Z,42.42
2019-02-19T00:48:08.940Z,42.38
2019-02-19T00:50:38.513Z,42.03
2019-02-19T00:53:08.175Z,41.74
2019-02-19T00:55:37.689Z,41.58
2019-02-19T00:58:07.238Z,41.94
2019-02-19T01:00:36.837Z,41.55
2019-02-19T01:03:06.459Z,41.62
2019-02-19T01:05:36.105Z,42.03
2019-02-19T01:08:05.715Z,42.58
2019-02-19T01:10:35.251Z,42.46
2019-02-19T01:13:04.839Z,43.42
2019-02-19T01:15:34.412Z,42.96
2019-02-19T01:18:03.920Z,42.92
2019-02-19T01:20:33.431Z,43.50
2019-02-19T01:23:03.020Z,42.77
2019-02-19T01:25:32.603Z,42.91
2019-02-19T01:28:02.146Z,41.81
2019-02-19T01:30:31.654Z,42.62
2019-02-19T01:33:01.173Z,42.19
2019-02-19T01:35:30.694Z,42.12
2019-02-19T01:38:00.213Z,42.16
2019-02-19T01:40:29.761Z,42.51
2019-02-19T01:43:00.969Z,42.22
2019-02-19T01:45:34.023Z,41.82
2019-02-19T01:48:01.982Z,42.21
2019-02-19T01:50:31.512Z,42.10
2019-02-19T01:53:01.129Z,41.64
2019-02-19T01:55:30.837Z,41.91
2019-02-19T01:58:00.398Z,42.13
2019-02-19T02:00:30.006Z,41.91
2019-02-19T02:02:59.550Z,41.95
2019-02-19T02:05:29.182Z,42.11
2019-02-19T02:07:58.687Z,42.03
2019-02-19T02:10:28.278Z,43.19
2019-02-19T02:12:57.862Z,43.27
2019-02-19T02:15:27.468Z,42.28
2019-02-19T02:17:57.156Z,42.89
2019-02-19T02:20:26.806Z,42.54
2019-02-19T02:22:56.436Z,42.49
2019-02-19T02:25:26.024Z,42.91
2019-02-19T02:27:55.690Z,42.17
2019-02-19T02:30:25.217Z,41.62
2019-02-19T02:32:54.773Z,41.97
2019-02-19T02:35:24.384Z,42.07
2019-02-19T02:37:54.014Z,41.58
2019-02-19T02:40:23.578Z,41.60
2019-02-19T02:42:53.160Z,41.48
2019-02-19T02:45:23.088Z,42.04
2019-02-19T02:47:52.642Z,42.17
2019-02-19T02:50:22.187Z,42.27
2019-02-19T02:52:51.737Z,43.15
2019-02-19T02:55:21.289Z,42.45
2019-02-19T02:57:50.827Z,42.43
2019-02-19T03:00:20.454Z,42.37
2019-02-19T03:02:49.967Z,42.68
2019-02-19T03:05:19.529Z,43.04
2019-02-19T03:07:54.937Z,42.60
2019-02-19T03:10:24.508Z,42.81
2019-02-19T03:12:54.050Z,43.20
2019-02-19T03:15:23.633Z,42.64
2019-02-19T03:17:53.285Z,42.71
2019-02-19T03:20:22.794Z,43.17
2019-02-19T03:22:52.398Z,43.85
2019-02-19T03:25:22.023Z,43.51
2019-02-19T03:27:51.532Z,43.11
2019-02-19T03:30:21.133Z,43.61
2019-02-19T03:32:50.718Z,42.99
2019-02-19T03:35:20.236Z,43.43
2019-02-19T03:37:49.752Z,43.17
2019-02-19T03:40:19.364Z,43.49
2019-02-19T03:42:48.898Z,42.89
2019-02-19T03:45:18.538Z,42.33
2019-02-19T03:47:48.179Z,43.33
2019-02-19T03:50:17.716Z,42.75
2019-02-19T03:52:47.339Z,42.80
2019-02-19T03:55:16.889Z,42.83
2019-02-19T03:57:46.714Z,43.67
2019-02-19T04:00:16.286Z,44.56
2019-02-19T04:02:45.931Z,42.43
2019-02-19T04:05:15.547Z,43.06
2019-02-19T04:07:45.062Z,42.53
2019-02-19T04:10:14.587Z,42.26
2019-02-19T04:12:44.169Z,42.67
2019-02-19T04:15:13.768Z,43.10
2019-02-19T04:17:43.363Z,43.55
2019-02-19T04:20:12.949Z,43.72
2019-02-19T04:22:42.474Z,43.53
2019-02-19T04:25:12.079Z,44.12
2019-02-19T04:27:41.592Z,44.48
2019-02-19T04:30:11.182Z,43.78
2019-02-19T04:32:40.693Z,44.42
2019-02-19T04:35:10.289Z,44.87
2019-02-19T04:37:39.796Z,50.50
2019-02-19T04:40:09.356Z,44.71
2019-02-19T04:42:38.854Z,43.47
2019-02-19T04:45:08.449Z,45.54
2019-02-19T04:47:37.971Z,46.30
2019-02-19T04:50:07.639Z,45.75
2019-02-19T04:52:37.150Z,46.28
2019-02-19T04:55:06.905Z,44.00
2019-02-19T04:57:36.546Z,43.95
2019-02-19T05:00:07.434Z,43.84
2019-02-19T05:02:36.950Z,43.63
2019-02-19T05:05:06.881Z,43.70
2019-02-19T05:07:36.455Z,43.79
2019-02-19T05:10:06.148Z,43.31
2019-02-19T05:12:35.661Z,43.72
2019-02-19T05:15:05.660Z,43.83
2019-02-19T05:17:35.180Z,44.14
2019-02-19T05:20:05.395Z,44.04
2019-02-19T05:22:34.909Z,44.39
2019-02-19T05:25:04.746Z,44.33
2019-02-19T05:27:34.277Z,44.06
2019-02-19T05:30:03.975Z,44.14
2019-02-19T05:32:33.482Z,43.95
2019-02-19T05:35:03.083Z,44.22
2019-02-19T05:37:32.624Z,43.85
2019-02-19T05:40:02.147Z,43.76
2019-02-19T05:42:31.701Z,43.80
2019-02-19T05:45:01.228Z,43.82
2019-02-19T05:47:30.814Z,43.95
2019-02-19T05:50:00.425Z,43.95
2019-02-19T05:52:29.945Z,44.02
2019-02-19T05:54:59.550Z,44.06
2019-02-19T05:57:29.088Z,44.29
2019-02-19T05:59:58.629Z,43.98
2019-02-19T06:02:28.135Z,44.38
2019-02-19T06:04:57.648Z,44.20
2019-02-19T06:07:27.184Z,44.46
2019-02-19T06:09:56.717Z,44.94
2019-02-19T06:12:26.241Z,45.41
2019-02-19T06:14:55.833Z,45.63
2019-02-19T06:17:25.361Z,45.84
2019-02-19T06:19:54.879Z,45.67
2019-02-19T06:22:24.409Z,45.81
2019-02-19T06:24:53.997Z,45.70
2019-02-19T06:27:23.512Z,45.80
2019-02-19T06:29:53.018Z,46.19
2019-02-19T06:32:22.537Z,47.40
2019-02-19T06:34:52.128Z,46.77
2019-02-19T06:37:21.640Z,47.30
2019-02-19T06:39:51.414Z,46.95
2019-02-19T06:42:21.080Z,48.43
2019-02-19T06:44:50.592Z,49.95
2019-02-19T06:47:20.140Z,47.72
2019-02-19T06:49:49.671Z,47.66
2019-02-19T06:52:19.191Z,47.96
2019-02-19T06:54:48.735Z,48.23
2019-02-19T06:57:18.232Z,48.36
2019-02-19T06:59:47.876Z,48.38
2019-02-19T07:02:36.373Z,49.15
2019-02-19T07:05:10.522Z,49.77
2019-02-19T07:07:40.145Z,49.90
2019-02-19T07:10:11.098Z,50.18
2019-02-19T07:12:40.703Z,49.97
2019-02-19T07:15:10.436Z,50.29
2019-02-19T07:17:39.951Z,50.66
2019-02-19T07:20:09.638Z,50.75
2019-02-19T07:22:39.161Z,50.54
2019-02-19T07:25:08.758Z,50.63
2019-02-19T07:27:38.367Z,51.04
2019-02-19T07:30:08.272Z,50.78
2019-02-19T07:32:38.319Z,51.18
2019-02-19T07:35:08.075Z,51.65
2019-02-19T07:37:37.694Z,51.91
2019-02-19T07:40:07.452Z,53.35
2019-02-19T07:42:37.069Z,54.96
2019-02-19T07:45:07.309Z,57.28
2019-02-19T07:47:36.897Z,58.30
2019-02-19T07:50:07.020Z,59.29
2019-02-19T07:52:36.566Z,58.93
2019-02-19T07:55:06.153Z,59.10
2019-02-19T07:57:35.732Z,57.25
2019-02-19T08:00:05.623Z,59.00
2019-02-19T08:02:35.142Z,60.18
2019-02-19T08:05:04.872Z,60.48
2019-02-19T08:07:34.479Z,60.34
2019-02-19T08:10:04.200Z,60.56
2019-02-19T08:12:33.713Z,60.47
2019-02-19T08:15:03.403Z,59.31
2019-02-19T08:17:33.656Z,59.35
2019-02-19T08:20:03.256Z,60.16
2019-02-19T08:22:32.814Z,61.17
2019-02-19T08:25:02.449Z,59.82
2019-02-19T08:27:32.165Z,58.71
2019-02-19T08:30:01.695Z,58.83
2019-02-19T08:32:31.297Z,57.42
2019-02-19T08:35:00.815Z,57.51
2019-02-19T08:37:30.378Z,57.26
2019-02-19T08:39:59.905Z,55.67
2019-02-19T08:42:29.592Z,54.25
2019-02-19T08:44:59.198Z,53.64
2019-02-19T08:47:28.710Z,53.31
2019-02-19T08:49:58.440Z,53.03
2019-02-19T08:52:27.979Z,54.04
2019-02-19T08:54:57.590Z,53.40
2019-02-19T08:57:27.154Z,53.51
2019-02-19T08:59:56.926Z,53.43
2019-02-19T09:02:26.608Z,53.14
2019-02-19T09:04:56.476Z,53.16
2019-02-19T09:07:26.240Z,52.17
2019-02-19T09:09:55.755Z,51.36
2019-02-19T09:12:25.419Z,53.01
2019-02-19T09:14:55.031Z,53.22
2019-02-19T09:17:24.722Z,50.97
2019-02-19T09:19:54.265Z,52.00
2019-02-19T09:22:23.948Z,50.06
2019-02-19T09:24:53.491Z,50.74
2019-02-19T09:27:23.378Z,52.17
2019-02-19T09:29:58.799Z,50.47
2019-02-19T09:32:28.380Z,50.19
2019-02-19T09:34:57.918Z,50.39
2019-02-19T09:37:27.425Z,51.52
2019-02-19T09:39:57.068Z,51.02
2019-02-19T09:42:26.573Z,48.66
2019-02-19T09:44:56.363Z,47.04
2019-02-19T09:47:26.360Z,49.43
2019-02-19T09:49:55.895Z,48.01
2019-02-19T09:52:25.490Z,46.37
2019-02-19T09:54:55.019Z,45.87
2019-02-19T09:57:24.621Z,46.21
2019-02-19T09:59:54.290Z,44.66
2019-02-19T10:02:23.813Z,45.09
2019-02-19T10:04:53.409Z,43.91
2019-02-19T10:07:23.028Z,42.15
2019-02-19T10:09:52.787Z,41.78
2019-02-19T10:12:22.318Z,40.40
2019-02-19T10:14:51.855Z,42.56
2019-02-19T10:17:21.371Z,43.91
2019-02-19T10:19:50.940Z,42.89
2019-02-19T10:22:20.535Z,45.00
2019-02-19T10:24:50.053Z,46.87
2019-02-19T10:27:19.596Z,45.85
2019-02-19T10:29:49.135Z,43.56
2019-02-19T10:32:18.641Z,42.98
2019-02-19T10:34:48.295Z,46.49
2019-02-19T10:37:17.771Z,42.80
2019-02-19T10:39:49.030Z,43.70
2019-02-19T10:42:19.054Z,44.20
2019-02-19T10:44:48.694Z,42.86
2019-02-19T10:47:18.232Z,42.04
2019-02-19T10:49:47.856Z,45.22
2019-02-19T10:52:17.379Z,39.80
2019-02-19T10:54:46.986Z,36.78
2019-02-19T10:57:16.497Z,38.33
2019-02-19T10:59:46.018Z,37.60
2019-02-19T11:02:15.582Z,40.48
2019-02-19T11:04:45.100Z,39.07
2019-02-19T11:07:14.606Z,37.29
2019-02-19T11:09:44.311Z,39.33
2019-02-19T11:12:13.861Z,40.25
2019-02-19T11:14:43.445Z,40.43
2019-02-19T11:17:13.089Z,39.13
2019-02-19T11:19:42.611Z,38.33
2019-02-19T11:22:13.577Z,37.38
2019-02-19T11:24:43.240Z,37.87
2019-02-19T11:27:13.322Z,37.93
2019-02-19T11:29:42.879Z,39.38
2019-02-19T11:32:12.399Z,39.48
2019-02-19T11:34:41.992Z,39.12
2019-02-19T11:37:11.726Z,39.01
2019-02-19T11:39:41.211Z,40.43
2019-02-19T11:42:10.821Z,40.15
2019-02-19T11:44:40.433Z,38.65
2019-02-19T11:47:10.013Z,37.76
2019-02-19T11:49:39.624Z,37.75
2019-02-19T11:52:09.171Z,37.82
2019-02-19T11:54:38.711Z,38.28
2019-02-19T11:57:08.328Z,38.84
2019-02-19T11:59:37.930Z,38.98
2019-02-19T12:02:12.269Z,38.90
2019-02-19T12:04:41.866Z,39.36
2019-02-19T12:07:12.074Z,39.45
2019-02-19T12:09:41.770Z,39.53
2019-02-19T12:12:11.342Z,40.40
2019-02-19T12:14:40.849Z,39.68
2019-02-19T12:17:10.417Z,40.31
2019-02-19T12:19:39.926Z,40.59
2019-02-19T12:22:09.449Z,38.86
2019-02-19T12:24:39.059Z,37.51
2019-02-19T12:27:09.063Z,36.64
2019-02-19T12:29:38.628Z,36.64
2019-02-19T12:32:08.169Z,37.63
2019-02-19T12:34:37.858Z,34.86
2019-02-19T12:37:07.861Z,35.07
2019-02-19T12:39:37.409Z,35.56
2019-02-19T12:42:07.069Z,36.89
2019-02-19T12:44:36.684Z,37.16
2019-02-19T12:47:06.279Z,37.22
2019-02-19T12:49:35.863Z,38.89
2019-02-19T12:52:05.506Z,38.32
2019-02-19T12:54:35.016Z,34.63
2019-02-19T12:57:04.602Z,35.18
2019-02-19T12:59:34.118Z,35.64
2019-02-19T13:02:03.679Z,34.90
2019-02-19T13:04:33.239Z,34.31
2019-02-19T13:07:02.819Z,33.69
2019-02-19T13:09:32.316Z,33.37
2019-02-19T13:12:02.077Z,34.49
2019-02-19T13:14:31.600Z,33.52
2019-02-19T13:17:01.274Z,33.70
2019-02-19T13:19:32.105Z,33.70
2019-02-19T13:22:01.732Z,34.94
2019-02-19T13:24:31.547Z,35.58
2019-02-19T13:27:01.115Z,36.03
2019-02-19T13:29:30.637Z,35.45
2019-02-19T13:32:00.227Z,35.79
2019-02-19T13:34:29.808Z,36.21
2019-02-19T13:36:59.332Z,37.97
2019-02-19T13:39:28.921Z,37.46
2019-02-19T13:41:58.429Z,37.16
2019-02-19T13:44:28.070Z,37.77
2019-02-19T13:46:57.854Z,38.16
2019-02-19T13:49:27.352Z,38.25
2019-02-19T13:52:01.442Z,39.09
2019-02-19T13:54:46.567Z,39.17
2019-02-19T13:57:16.138Z,38.33
2019-02-19T13:59:45.651Z,38.33
2019-02-19T14:02:15.293Z,38.76
2019-02-19T14:04:44.947Z,37.57
2019-02-19T14:07:14.815Z,37.93
2019-02-19T14:09:44.608Z,38.10
2019-02-19T14:12:14.190Z,39.61
2019-02-19T14:14:50.610Z,38.90
2019-02-19T14:17:22.091Z,39.48
2019-02-19T14:20:09.283Z,41.22
2019-02-19T14:23:06.459Z,41.61
2019-02-19T14:25:57.607Z,41.82
2019-02-19T14:28:52.793Z,41.36
2019-02-19T14:31:59.576Z,41.53
2019-02-19T14:34:48.189Z,39.85
2019-02-19T14:37:42.401Z,38.20
2019-02-19T14:40:37.118Z,39.04
2019-02-19T14:43:25.696Z,40.03
2019-02-19T14:46:09.559Z,40.87
2019-02-19T14:49:01.183Z,39.37
2019-02-19T14:51:48.463Z,39.92
2019-02-19T14:54:35.920Z,39.26
2019-02-19T14:57:22.305Z,39.03
2019-02-19T15:00:28.969Z,39.49
2019-02-19T15:03:29.937Z,39.25
2019-02-19T15:06:33.865Z,40.00
2019-02-19T15:09:28.122Z,40.74
2019-02-19T15:12:10.384Z,41.07
2019-02-19T15:14:57.666Z,41.01
2019-02-19T15:17:44.618Z,40.85
2019-02-19T15:20:32.002Z,40.45
2019-02-19T15:23:23.263Z,40.34
2019-02-19T15:26:15.039Z,40.55
2019-02-19T15:29:18.684Z,40.64
2019-02-19T15:32:06.460Z,40.54
2019-02-19T15:34:58.177Z,40.42
2019-02-19T15:37:45.471Z,41.01
2019-02-19T15:40:40.239Z,40.88
2019-02-19T15:43:27.722Z,40.96
2019-02-19T15:46:16.244Z,40.82
2019-02-19T15:49:04.797Z,40.59
2019-02-19T15:51:52.488Z,40.91
2019-02-19T15:54:53.331Z,41.27
2019-02-19T15:57:32.557Z,41.70
2019-02-19T16:00:20.146Z,41.82
2019-02-19T16:03:07.031Z,42.38
2019-02-19T16:05:58.414Z,42.65
2019-02-19T16:08:54.055Z,42.95
2019-02-19T16:11:33.000Z,43.45
2019-02-19T16:14:19.014Z,43.96
2019-02-19T16:17:07.551Z,43.73
2019-02-19T16:19:56.615Z,43.85
2019-02-19T16:22:22.444Z,43.92
2019-02-19T16:25:04.994Z,44.28
2019-02-19T16:27:57.840Z,46.18
2019-02-19T16:30:46.339Z,46.08
2019-02-19T16:33:28.066Z,45.92
2019-02-19T16:36:16.340Z,44.98
2019-02-19T16:38:59.082Z,44.31
2019-02-19T16:41:43.129Z,44.31
2019-02-19T16:44:37.685Z,44.48
2019-02-19T16:47:14.835Z,44.81
2019-02-19T16:50:07.286Z,45.17
2019-02-19T16:52:38.611Z,45.89
2019-02-19T16:55:27.506Z,46.18
2019-02-19T16:58:19.088Z,46.42
2019-02-19T17:00:55.285Z,46.56
2019-02-19T17:03:43.862Z,46.27
2019-02-19T17:06:30.886Z,46.50
2019-02-19T17:09:08.422Z,46.43
2019-02-19T17:11:56.141Z,46.17
2019-02-19T17:14:43.664Z,46.56
2019-02-19T17:17:18.593Z,46.59
2019-02-19T17:20:21.077Z,47.66
2019-02-19T17:22:58.806Z,46.64
2019-02-19T17:25:50.401Z,46.91
2019-02-19T17:28:37.741Z,47.18
2019-02-19T17:31:18.936Z,46.86
2019-02-19T17:34:06.284Z,47.06
2019-02-19T17:36:58.186Z,47.83
2019-02-19T17:39:59.229Z,47.50
2019-02-19T17:42:43.127Z,47.71
2019-02-19T17:45:30.602Z,47.45
2019-02-19T17:48:34.514Z,47.59
2019-02-19T17:51:16.483Z,47.82
2019-02-19T17:54:05.107Z,47.59
2019-02-19T17:56:43.212Z,47.92
2019-02-19T17:59:26.447Z,48.36
2019-02-19T18:02:17.653Z,48.33
2019-02-19T18:05:05.072Z,48.13
2019-02-19T18:07:48.510Z,48.29
2019-02-19T18:10:37.128Z,47.95
2019-02-19T18:13:15.120Z,48.36
2019-02-19T18:16:03.525Z,48.86
2019-02-19T18:18:44.684Z,49.76
2019-02-19T18:21:14.451Z,49.85
2019-02-19T18:23:43.964Z,51.10
2019-02-19T18:26:13.567Z,51.65
2019-02-19T18:28:43.095Z,51.55
2019-02-19T18:31:12.673Z,51.39
2019-02-19T18:33:42.213Z,50.66
2019-02-19T18:36:11.811Z,49.87
2019-02-19T18:38:41.331Z,49.86
2019-02-19T18:41:10.895Z,49.89
2019-02-19T18:43:40.398Z,49.63
2019-02-19T18:46:10.028Z,49.20
2019-02-19T18:48:39.627Z,49.02
2019-02-19T18:51:09.215Z,48.87
2019-02-19T18:53:38.850Z,48.88
2019-02-19T18:56:08.447Z,49.13
2019-02-19T18:58:38.044Z,49.35
2019-02-19T19:01:08.616Z,49.25
2019-02-19T19:03:38.283Z,49.32
2019-02-19T19:06:09.655Z,48.87
2019-02-19T19:08:39.186Z,48.81
2019-02-19T19:11:08.714Z,49.30
2019-02-19T19:13:38.408Z,49.67
2019-02-19T19:16:07.891Z,49.33
2019-02-19T19:18:37.467Z,49.87
2019-02-19T19:21:08.233Z,49.82
2019-02-19T19:23:37.983Z,49.73
2019-02-19T19:26:07.746Z,49.61
2019-02-19T19:28:37.365Z,49.95
2019-02-19T19:31:06.882Z,49.62
2019-02-19T19:33:36.462Z,49.70
2019-02-19T19:36:06.132Z,49.74
2019-02-19T19:38:35.662Z,50.50
2019-02-19T19:41:05.299Z,49.45
2019-02-19T19:43:34.849Z,50.42
2019-02-19T19:46:04.419Z,50.49
2019-02-19T19:48:34.089Z,49.00
2019-02-19T19:51:03.658Z,49.00
2019-02-19T19:53:33.247Z,48.95
2019-02-19T19:56:02.759Z,50.66
2019-02-19T19:58:32.273Z,50.81
2019-02-19T20:01:01.849Z,50.92
2019-02-19T20:03:31.367Z,50.25
2019-02-19T20:06:00.974Z,50.81
2019-02-19T20:08:30.663Z,50.44
2019-02-19T20:11:00.259Z,50.77
2019-02-19T20:13:29.953Z,50.40
2019-02-19T20:15:59.430Z,50.55
2019-02-19T20:18:29.036Z,50.85
2019-02-19T20:20:58.651Z,50.40
2019-02-19T20:23:28.174Z,50.76
2019-02-19T20:25:57.696Z,50.46
2019-02-19T20:28:27.338Z,50.21
2019-02-19T20:30:56.850Z,51.53
2019-02-19T20:33:26.402Z,51.97
2019-02-19T20:35:55.934Z,52.89
2019-02-19T20:38:25.463Z,51.61
2019-02-19T20:40:55.045Z,51.04
2019-02-19T20:43:24.528Z,50.91
2019-02-19T20:45:54.042Z,50.35
2019-02-19T20:48:23.581Z,50.92
2019-02-19T20:50:53.088Z,51.12
2019-02-19T20:53:22.607Z,50.13
2019-02-19T20:55:52.349Z,49.92
2019-02-19T20:58:21.829Z,49.96
2019-02-19T21:00:53.283Z,50.49
2019-02-19T21:03:22.988Z,49.66
2019-02-19T21:05:52.516Z,49.30
2019-02-19T21:08:22.059Z,51.55
2019-02-19T21:10:51.586Z,49.45
2019-02-19T21:13:21.201Z,49.93
2019-02-19T21:15:50.738Z,49.88
2019-02-19T21:18:20.252Z,50.04
2019-02-19T21:20:49.822Z,50.04
2019-02-19T21:23:19.318Z,50.15
2019-02-19T21:25:48.839Z,50.90
2019-02-19T21:28:18.416Z,50.83
2019-02-19T21:30:47.954Z,50.47
2019-02-19T21:33:17.582Z,50.19
2019-02-19T21:35:47.224Z,50.32
2019-02-19T21:38:16.774Z,50.91
2019-02-19T21:40:46.575Z,51.34
2019-02-19T21:43:16.118Z,51.19
2019-02-19T21:45:45.734Z,50.89
2019-02-19T21:48:15.368Z,50.94
2019-02-19T21:50:44.881Z,50.76
2019-02-19T21:53:14.393Z,50.92
2019-02-19T21:55:43.939Z,50.95
2019-02-19T21:58:13.489Z,50.52
2019-02-19T22:00:43.197Z,50.46
2019-02-19T22:03:12.708Z,50.38
2019-02-19T22:05:42.311Z,50.62
2019-02-19T22:08:11.924Z,50.54
2019-02-19T22:10:41.489Z,50.89
2019-02-19T22:13:11.012Z,50.51
2019-02-19T22:15:40.635Z,50.21
2019-02-19T22:18:10.253Z,50.38
2019-02-19T22:20:45.371Z,51.39
2019-02-19T22:23:14.874Z,50.82
2019-02-19T22:25:44.464Z,51.40
2019-02-19T22:28:14.272Z,51.31
2019-02-19T22:30:43.795Z,50.99
2019-02-19T22:33:13.381Z,51.90
2019-02-19T22:35:42.931Z,51.96
2019-02-19T22:38:12.436Z,52.54
2019-02-19T22:40:41.986Z,52.87
2019-02-19T22:43:11.494Z,53.13
2019-02-19T22:45:40.998Z,54.51
2019-02-19T22:48:10.633Z,54.18
2019-02-19T22:50:40.225Z,53.92
2019-02-19T22:53:27.233Z,55.35
2019-02-19T22:56:02.007Z,55.33
2019-02-19T22:58:31.623Z,54.72
2019-02-19T23:01:07.201Z,55.10
2019-02-19T23:03:38.652Z,55.86
2019-02-19T23:06:08.925Z,55.90
2019-02-19T23:08:38.759Z,55.59
2019-02-19T23:11:08.566Z,55.10
2019-02-19T23:13:38.646Z,55.00
2019-02-19T23:16:08.217Z,55.10
2019-02-19T23:18:37.795Z,54.96
2019-02-19T23:21:07.538Z,54.41
2019-02-19T23:23:37.268Z,53.58
2019-02-19T23:26:06.930Z,52.92
2019-02-19T23:28:36.495Z,52.30
2019-02-19T23:31:06.218Z,52.18
2019-02-19T23:33:35.784Z,51.81
2019-02-19T23:36:10.515Z,51.70
2019-02-19T23:38:40.178Z,52.00
2019-02-19T23:41:09.854Z,51.95
2019-02-19T23:43:39.500Z,52.09
2019-02-19T23:46:09.161Z,51.78
2019-02-19T23:48:38.810Z,51.70
2019-02-19T23:51:08.502Z,51.55
2019-02-19T23:53:38.339Z,51.43
2019-02-19T23:56:08.063Z,51.22
2019-02-19T23:58:37.654Z,50.97
